Aérodrome :
LOGIN :

S'inscrire | Disclaimer

   EN    FR    IT 

 










Légende :    VFR   VFR Marginal   IFR   IFR Intensif   IFR Très Intensif
Visi : 
Plafond : 
>= 8 km
>= 3000ft
5 à 8 km
1000 à 3000 ft
1500m à 5 km
500 à 1000 ft
800 à 1500m
200 à 500 ft
< 800m
< 200 ft
Symboles :   Orages  Brouillard  Fortes neiges  Fortes précipitations  Vent > 20 kt
SIGMETs :   Divers  Orages  Givrage  Turbulence  Onde Orograph.  Cendres Volcan.






- Altitude de l'aérodrome : 681 ft
- Code IATA : LBA


EGNM - Leeds Bradford

DERNIER METAR :
  • 271620Z 27009KT 230V300 9999 SCT034 14/07 Q1012

METARs EXPIRÉS :
  • 271550Z 27012KT 9999 SCT030 SCT042 14/07 Q1012
  • 271520Z 23008KT 200V270 9999 -SHRA SCT030 SCT042 14/08 Q1012
  • 271450Z 27013KT 9999 VCSH SCT020 SCT031TCU 14/07 Q1012
  • 271420Z 26011KT 9999 VCSH SCT016 SCT025TCU 14/08 Q1012
  • 271350Z 24007KT 200V270 9999 -SHRA SCT014 SCT028TCU 13/08 Q1012
  • 271320Z 22013KT 9999 -SHRA SCT014 SCT028TCU 13/08 Q1012
  • 271250Z 25010KT 200V290 9999 VCSH FEW012 SCT022TCU SCT045 15/09 Q1011
  • 271220Z 25012KT 9999 -SHRA FEW012 SCT022TCU SCT045 13/08 Q1011
  • 271150Z 22009KT 9999 -SHRA SCT021TCU SCT044 13/10 Q1011

TAF TAF EGNM
Valide du 27 à 12h jusqu'au 28 à 12h UTC


271058Z 2712/2812 27012KT 9999 FEW015 SCT030
TEMPO 2712/2718 6000 SHRA
PROB30
TEMPO 2712/2716 4000 +SHRA BKN014 BKN035CB
BECMG 2719/2722 16003KT
PROB30
TEMPO 2806/2809 9000 -RA BKN012
TEMPO 2809/2812 7000 RA -RADZ BKN010
PROB30
TEMPO 2810/2812 4000 RADZ BKN005
ATIS : +44 113 250 9696 (x2489)



MET'MAP, la Météo Aéronautique d'un coup d'oeil ! - Copyright ORBIFLY Décembre 2007 - Disclaimer

ORBIFLY MET'MAP TEAM :

Programmation & Développement : Alexandra Zaïnal
Sur une idée originale de : Baudouin d'Aumeries
Soutien technique & logistique : Manuel Goepfert
Assistance : Marc-Olivier Méhu




SOURCES & CREDITS :

   NOAA